Auburn, New Jersey
Current Conditions -  °F | °C
As of 3:54 PM on Friday 31 Oct 2014 (Local Time) from KPHL Reporting Station
Broken Clouds Broken Clouds  
Wind Chill: 12°   Ceiling: 4500
Heat Index: 12°   Visibility: 10mi
Dew Point:   Wind: 8mph
Humidity: 51%   Direction: 10°N
Pressure: 29.89"   Gusts: NA
Location:  39.757°N, 75.3338°W
Report Text: KPHL 311954Z 01007KT 330V050 10SM FEW034 BKN045 BKN250 12/02 A2989 RMK AO2 SLP119 T01220022 $
Loading
Personal Weather Stations






























Interactive Weather Map
Tropical Storm Tracking
New forecast layout! Learn more

10-Day Weather Forecast

Advertisements
Track Severe Weather on mobile